Sea Thames — V2BV1 — position and weather

sailwx.info

Track history (hours):
 
Tides and Currents Weather Stations Pressure Air Temp Water Temp Dewpoint Dewpoint Depression Visibility Wind Speed Wind Dir Waves Ship Positions

Sea Thames

Last reported at 2017-Feb-20 15:18 UTC. Time now 2017-Feb-21 09:57 UTC.
Position N 49°27' E 000°49'.

Length 87 m; draft 3.2 m.

Type: Cargo ship. MMSI: 304933000.

Date/timePositionNaut miles runAvg speedWind from/ knotsBaromVisibWave heightAir tempDewpointWater temp
2017-Feb-20 15:18N 49°27' E 000°49'6 5.7
2017-Feb-20 14:13N 49°29' E 000°40'5 7.0
2017-Feb-20 13:33N 49°27' E 000°34'4 1.2
2017-Feb-20 10:03N 49°29' E 000°29'0 0.0
2017-Feb-20 09:33N 49°29' E 000°29'0 0.0
2017-Feb-20 08:32N 49°29' E 000°29'0 0.0
2017-Feb-20 06:26N 49°29' E 000°29'0 0.0
2017-Feb-20 05:29N 49°29' E 000°29'0 0.0
2017-Feb-20 04:29N 49°29' E 000°29'0 0.0
2017-Feb-20 03:28N 49°29' E 000°29'0 0.0
2017-Feb-20 02:32N 49°29' E 000°29'0 0.0
2017-Feb-20 01:31N 49°29' E 000°29'0 0.0
2017-Feb-20 00:30N 49°29' E 000°29'0 0.0
2017-Feb-19 21:03N 49°29' E 000°29'0 0.0
2017-Feb-19 20:30N 49°29' E 000°29'0 0.0
2017-Feb-19 19:28N 49°29' E 000°29'0 0.0
2017-Feb-19 18:32N 49°29' E 000°29'0 0.0
2017-Feb-19 17:33N 49°29' E 000°29'0 0.0
2017-Feb-19 16:33N 49°29' E 000°29'0 0.0
2017-Feb-19 15:33N 49°29' E 000°29'0 0.0
2017-Feb-19 14:33N 49°29' E 000°29'0 0.0
2017-Feb-19 13:33N 49°29' E 000°29'7 7.1
2017-Feb-19 12:33N 49°26' E 000°19'10 9.7
2017-Feb-19 11:33N 49°26' E 000°04'8 8.3
2017-Feb-19 10:33N 49°29' W 000°07'7 7.0
2017-Feb-19 09:33N 49°32' W 000°17'7 7.1
2017-Feb-19 08:33N 49°36' W 000°27'7 7.1
2017-Feb-19 07:33N 49°39' W 000°36'6 6.4
2017-Feb-19 06:33N 49°42' W 000°45'6 6.0
2017-Feb-19 05:33N 49°45' W 000°53'6 5.9
2017-Feb-19 04:33N 49°48' W 001°01'7 6.6
2017-Feb-19 03:33N 49°51' W 001°10'9 8.8
2017-Feb-19 02:33N 49°53' W 001°24'9 9.3
2017-Feb-19 01:33N 49°54' W 001°38'9 9.3
2017-Feb-19 00:33N 49°56' W 001°52'9 9.4
2017-Feb-18 23:33N 49°55' W 002°07'20 9.1
2017-Feb-18 21:22N 49°50' W 002°37'7 8.2
2017-Feb-18 20:33N 49°49' W 002°47'8 7.9
2017-Feb-18 19:33N 49°47' W 002°58'7 7.5
2017-Feb-18 18:33N 49°44' W 003°09'7 7.4
2017-Feb-18 17:33N 49°40' W 003°19'86 8.5
2017-Feb-18 07:29N 48°55' W 005°11'9 9.7
2017-Feb-18 06:33N 48°51' W 005°23'9 9.5
2017-Feb-18 05:33N 48°46' W 005°35'  
2017-Feb-10 16:30N 49°47' W 003°32'8 8.4
2017-Feb-10 15:33N 49°51' W 003°21'  
Track history (hours):
 
Tides and Currents Weather Stations Pressure Air Temp Water Temp Dewpoint Dewpoint Depression Visibility Wind Speed Wind Dir Waves Ship Positions

Sea Thames

Last reported at 2017-Feb-20 15:18 UTC. Time now 2017-Feb-21 09:57 UTC.
Position N 49°27' E 000°49'.

Length 87 m; draft 3.2 m.

Type: Cargo ship. MMSI: 304933000.

Date/timePositionNaut miles runAvg speedWind from/ knotsBaromVisibWave heightAir tempDewpointWater temp
2017-Feb-20 15:18N 49°27' E 000°49'6 5.7
2017-Feb-20 14:13N 49°29' E 000°40'5 7.0
2017-Feb-20 13:33N 49°27' E 000°34'4 1.2
2017-Feb-20 10:03N 49°29' E 000°29'0 0.0
2017-Feb-20 09:33N 49°29' E 000°29'0 0.0
2017-Feb-20 08:32N 49°29' E 000°29'0 0.0
2017-Feb-20 06:26N 49°29' E 000°29'0 0.0
2017-Feb-20 05:29N 49°29' E 000°29'0 0.0
2017-Feb-20 04:29N 49°29' E 000°29'0 0.0
2017-Feb-20 03:28N 49°29' E 000°29'0 0.0
2017-Feb-20 02:32N 49°29' E 000°29'0 0.0
2017-Feb-20 01:31N 49°29' E 000°29'0 0.0
2017-Feb-20 00:30N 49°29' E 000°29'0 0.0
2017-Feb-19 21:03N 49°29' E 000°29'0 0.0
2017-Feb-19 20:30N 49°29' E 000°29'0 0.0
2017-Feb-19 19:28N 49°29' E 000°29'0 0.0
2017-Feb-19 18:32N 49°29' E 000°29'0 0.0
2017-Feb-19 17:33N 49°29' E 000°29'0 0.0
2017-Feb-19 16:33N 49°29' E 000°29'0 0.0
2017-Feb-19 15:33N 49°29' E 000°29'0 0.0
2017-Feb-19 14:33N 49°29' E 000°29'0 0.0
2017-Feb-19 13:33N 49°29' E 000°29'7 7.1
2017-Feb-19 12:33N 49°26' E 000°19'10 9.7
2017-Feb-19 11:33N 49°26' E 000°04'8 8.3
2017-Feb-19 10:33N 49°29' W 000°07'7 7.0
2017-Feb-19 09:33N 49°32' W 000°17'7 7.1
2017-Feb-19 08:33N 49°36' W 000°27'7 7.1
2017-Feb-19 07:33N 49°39' W 000°36'6 6.4
2017-Feb-19 06:33N 49°42' W 000°45'6 6.0
2017-Feb-19 05:33N 49°45' W 000°53'6 5.9
2017-Feb-19 04:33N 49°48' W 001°01'7 6.6
2017-Feb-19 03:33N 49°51' W 001°10'9 8.8
2017-Feb-19 02:33N 49°53' W 001°24'9 9.3
2017-Feb-19 01:33N 49°54' W 001°38'9 9.3
2017-Feb-19 00:33N 49°56' W 001°52'9 9.4
2017-Feb-18 23:33N 49°55' W 002°07'20 9.1
2017-Feb-18 21:22N 49°50' W 002°37'7 8.2
2017-Feb-18 20:33N 49°49' W 002°47'8 7.9
2017-Feb-18 19:33N 49°47' W 002°58'7 7.5
2017-Feb-18 18:33N 49°44' W 003°09'7 7.4
2017-Feb-18 17:33N 49°40' W 003°19'86 8.5
2017-Feb-18 07:29N 48°55' W 005°11'9 9.7
2017-Feb-18 06:33N 48°51' W 005°23'9 9.5
2017-Feb-18 05:33N 48°46' W 005°35'  
2017-Feb-10 16:30N 49°47' W 003°32'8 8.4
2017-Feb-10 15:33N 49°51' W 003°21'  

Dump ship's entire track history